createdAt,value
2023-05-17T00:03:03.278Z,98293.52
2023-05-17T00:06:20.281Z,98302.34
2023-05-17T00:09:37.119Z,98301.31
2023-05-17T00:12:54.053Z,98303.80
2023-05-17T00:16:10.632Z,98302.53
2023-05-17T00:19:27.553Z,98306.64
2023-05-17T00:22:46.198Z,98315.84
2023-05-17T00:26:02.573Z,98308.28
2023-05-17T00:29:19.109Z,98293.51
2023-05-17T00:32:35.544Z,98306.42
2023-05-17T00:35:52.908Z,98301.69
2023-05-17T00:39:09.422Z,98301.28
2023-05-17T00:42:26.318Z,98296.60
2023-05-17T00:45:42.939Z,98301.50
2023-05-17T00:48:59.530Z,98298.84
2023-05-17T00:52:17.241Z,98296.00
2023-05-17T00:55:34.456Z,98275.53
2023-05-17T00:58:51.142Z,98279.00
2023-05-17T01:02:08.348Z,98300.52
2023-05-17T01:05:25.416Z,98309.75
2023-05-17T01:08:42.301Z,98305.27
2023-05-17T01:12:08.126Z,98302.34
2023-05-17T01:15:28.926Z,98306.69
2023-05-17T01:18:51.073Z,98316.89
2023-05-17T01:22:15.911Z,98321.82
2023-05-17T01:25:44.832Z,98321.17
2023-05-17T01:29:04.722Z,98312.81
2023-05-17T01:32:22.093Z,98327.95
2023-05-17T01:35:40.123Z,98333.50
2023-05-17T01:38:57.092Z,98327.16
2023-05-17T01:42:20.044Z,98314.05
2023-05-17T01:45:40.629Z,98306.69
2023-05-17T01:49:02.852Z,98308.52
2023-05-17T01:52:25.327Z,98326.34
2023-05-17T01:55:50.666Z,98321.67
2023-05-17T01:59:08.045Z,98344.80
2023-05-17T02:02:24.474Z,98342.97
2023-05-17T02:05:41.160Z,98342.97
2023-05-17T02:08:59.672Z,98345.59
2023-05-17T02:12:17.319Z,98352.16
2023-05-17T02:15:33.888Z,98355.88
2023-05-17T02:18:50.285Z,98357.91
2023-05-17T02:22:07.059Z,98358.31
2023-05-17T02:25:24.148Z,98357.94
2023-05-17T02:28:40.489Z,98352.40
2023-05-17T02:31:59.231Z,98345.43
2023-05-17T02:35:17.421Z,98343.20
2023-05-17T02:38:33.933Z,98341.77
2023-05-17T02:41:50.246Z,98344.24
2023-05-17T02:45:06.841Z,98341.56
2023-05-17T02:48:24.627Z,98346.88
2023-05-17T02:51:41.042Z,98348.52
2023-05-17T02:54:58.768Z,98337.47
2023-05-17T02:58:15.506Z,98330.72
2023-05-17T03:01:33.088Z,98318.22
2023-05-17T03:04:49.902Z,98316.61
2023-05-17T03:08:06.766Z,98321.91
2023-05-17T03:11:27.045Z,98338.27
2023-05-17T03:14:45.954Z,98342.60
2023-05-17T03:18:02.761Z,98343.81
2023-05-17T03:21:19.597Z,98356.71
2023-05-17T03:24:36.911Z,98345.25
2023-05-17T03:27:53.933Z,98338.32
2023-05-17T03:31:10.925Z,98344.45
2023-05-17T03:34:27.568Z,98356.32
2023-05-17T03:37:44.256Z,98352.84
2023-05-17T03:41:01.449Z,98361.44
2023-05-17T03:44:18.343Z,98365.95
2023-05-17T03:47:35.933Z,98371.06
2023-05-17T03:50:53.704Z,98369.00
2023-05-17T03:54:11.013Z,98367.78
2023-05-17T03:57:29.571Z,98379.23
2023-05-17T04:00:46.285Z,98394.59
2023-05-17T04:04:05.420Z,98400.09
2023-05-17T04:07:21.990Z,98408.91
2023-05-17T04:10:41.082Z,98416.85
2023-05-17T04:13:55.447Z,98430.18
2023-05-17T04:17:11.985Z,98430.36
2023-05-17T04:20:28.732Z,98425.04
2023-05-17T04:23:46.013Z,98434.25
2023-05-17T04:27:05.101Z,98439.77
2023-05-17T04:30:25.071Z,98432.63
2023-05-17T04:33:42.105Z,98435.92
2023-05-17T04:37:00.204Z,98428.36
2023-05-17T04:40:19.989Z,98443.27
2023-05-17T04:43:37.187Z,98458.98
2023-05-17T04:46:55.442Z,98445.30
2023-05-17T04:50:13.351Z,98436.52
2023-05-17T04:53:29.867Z,98434.03
2023-05-17T04:56:50.082Z,98438.75
2023-05-17T05:00:11.054Z,98445.30
2023-05-17T05:03:30.180Z,98442.22
2023-05-17T05:06:47.544Z,98437.95
2023-05-17T05:10:05.232Z,98434.06
2023-05-17T05:13:22.305Z,98436.09
2023-05-17T05:16:39.717Z,98429.97
2023-05-17T05:19:56.468Z,98427.31
2023-05-17T05:23:13.005Z,98443.06
2023-05-17T05:26:30.878Z,98456.15
2023-05-17T05:29:47.602Z,98461.67
2023-05-17T05:33:04.458Z,98462.30
2023-05-17T05:36:21.546Z,98462.09
2023-05-17T05:39:40.759Z,98462.52
2023-05-17T05:42:59.091Z,98472.14
2023-05-17T05:46:15.858Z,98470.31
2023-05-17T05:49:32.671Z,98480.75
2023-05-17T05:52:49.211Z,98484.22
2023-05-17T05:56:05.636Z,98492.58
2023-05-17T05:59:22.107Z,98505.88
2023-05-17T06:02:39.564Z,98499.13
2023-05-17T06:05:56.723Z,98509.80
2023-05-17T06:09:13.740Z,98506.93
2023-05-17T06:12:30.205Z,98517.36
2023-05-17T06:15:48.294Z,98507.73
2023-05-17T06:19:04.848Z,98507.98
2023-05-17T06:22:21.156Z,98513.90
2023-05-17T06:25:39.663Z,98514.73
2023-05-17T06:28:58.274Z,98519.84
2023-05-17T06:32:15.822Z,98526.19
2023-05-17T06:35:43.636Z,98534.80
2023-05-17T06:38:52.851Z,98549.92
2023-05-17T06:42:09.608Z,98539.48
2023-05-17T06:45:28.600Z,98542.95
2023-05-17T06:48:45.679Z,98542.16
2023-05-17T06:52:04.609Z,98548.70
2023-05-17T06:55:21.377Z,98547.89
2023-05-17T06:58:37.728Z,98541.55
2023-05-17T07:01:54.197Z,98549.95
2023-05-17T07:05:15.732Z,98550.34
2023-05-17T07:08:32.430Z,98550.76
2023-05-17T07:11:48.853Z,98557.30
2023-05-17T07:15:05.296Z,98562.63
2023-05-17T07:18:22.665Z,98564.28
2023-05-17T07:21:39.420Z,98574.50
2023-05-17T07:24:56.099Z,98574.88
2023-05-17T07:28:13.353Z,98592.70
2023-05-17T07:31:29.941Z,98592.31
2023-05-17T07:34:46.868Z,98593.75
2023-05-17T07:38:03.791Z,98590.05
2023-05-17T07:41:23.920Z,98592.31
2023-05-17T07:44:40.552Z,98603.14
2023-05-17T07:47:57.520Z,98603.77
2023-05-17T07:51:14.655Z,98609.09
2023-05-17T07:54:34.632Z,98617.50
2023-05-17T07:57:53.720Z,98616.70
2023-05-17T08:01:11.288Z,98624.09
2023-05-17T08:04:27.999Z,98621.42
2023-05-17T08:07:44.521Z,98625.11
2023-05-17T08:11:01.195Z,98632.67
2023-05-17T08:14:18.041Z,98631.86
2023-05-17T08:17:34.716Z,98630.81
2023-05-17T08:20:53.420Z,98629.20
2023-05-17T08:24:09.992Z,98627.34
2023-05-17T08:27:28.554Z,98629.80
2023-05-17T08:30:47.184Z,98634.73
2023-05-17T08:34:04.251Z,98640.02
2023-05-17T08:37:20.669Z,98640.44
2023-05-17T08:40:37.887Z,98645.38
2023-05-17T08:43:55.373Z,98642.30
2023-05-17T08:47:15.648Z,98652.69
2023-05-17T08:50:35.943Z,98650.70
2023-05-17T08:53:52.886Z,98654.55
2023-05-17T08:57:12.703Z,98667.48
2023-05-17T09:00:35.973Z,98679.56
2023-05-17T09:03:55.428Z,98676.27
2023-05-17T09:07:12.282Z,98669.51
2023-05-17T09:10:31.761Z,98683.45
2023-05-17T09:13:48.850Z,98688.77
2023-05-17T09:17:08.833Z,98691.81
2023-05-17T09:20:34.941Z,98697.34
2023-05-17T09:24:04.723Z,98705.89
2023-05-17T09:27:13.763Z,98707.52
2023-05-17T09:30:39.040Z,98714.89
2023-05-17T09:33:56.783Z,98723.71
2023-05-17T09:37:22.311Z,98729.20
2023-05-17T09:40:40.229Z,98726.16
2023-05-17T09:43:57.226Z,98737.16
2023-05-17T09:47:14.028Z,98741.06
2023-05-17T09:50:32.010Z,98733.92
2023-05-17T09:53:48.777Z,98739.24
2023-05-17T09:57:11.533Z,98752.55
2023-05-17T10:00:30.855Z,98756.02
2023-05-17T10:03:47.691Z,98764.20
2023-05-17T10:07:04.504Z,98765.41
2023-05-17T10:10:24.380Z,98771.17
2023-05-17T10:13:46.466Z,98773.40
2023-05-17T10:17:03.947Z,98780.73
2023-05-17T10:20:23.434Z,98783.61
2023-05-17T10:23:43.147Z,98775.77
2023-05-17T10:27:00.156Z,98780.27
2023-05-17T10:30:20.255Z,98781.48
2023-05-17T10:33:39.440Z,98777.58
2023-05-17T10:36:53.698Z,98781.25
2023-05-17T10:40:12.811Z,98777.71
2023-05-17T10:43:31.267Z,98787.38
2023-05-17T10:46:48.194Z,98787.14
2023-05-17T10:50:04.930Z,98806.09
2023-05-17T10:53:21.939Z,98790.90
2023-05-17T10:56:38.910Z,98801.69
2023-05-17T11:00:08.859Z,98798.59
2023-05-17T11:03:29.697Z,98812.89
2023-05-17T11:06:48.398Z,98809.27
2023-05-17T11:10:11.440Z,98813.13
2023-05-17T11:13:36.086Z,98816.80
2023-05-17T11:16:52.425Z,98815.98
2023-05-17T11:20:19.654Z,98817.20
2023-05-17T11:23:38.463Z,98816.36
2023-05-17T11:27:01.323Z,98817.64
2023-05-17T11:30:30.470Z,98815.15
2023-05-17T11:33:52.701Z,98822.68
2023-05-17T11:37:09.422Z,98827.38
2023-05-17T11:40:34.883Z,98826.98
2023-05-17T11:43:56.238Z,98829.40
2023-05-17T11:47:14.678Z,98833.31
2023-05-17T11:50:31.837Z,98841.23
2023-05-17T11:53:51.384Z,98845.63
2023-05-17T11:57:11.930Z,98846.10
2023-05-17T12:00:35.762Z,98837.45
2023-05-17T12:03:53.351Z,98841.96
2023-05-17T12:07:12.477Z,98844.29
2023-05-17T12:10:28.484Z,98844.54
2023-05-17T12:13:49.208Z,98849.60
2023-05-17T12:17:09.147Z,98839.78
2023-05-17T12:20:27.051Z,98845.73
2023-05-17T12:23:49.604Z,98843.25
2023-05-17T12:27:05.777Z,98857.09
2023-05-17T12:30:29.065Z,98863.42
2023-05-17T12:33:53.516Z,98857.85
2023-05-17T12:37:11.374Z,98869.09
2023-05-17T12:40:32.981Z,98880.67
2023-05-17T12:44:06.250Z,98881.67
2023-05-17T12:47:16.839Z,98879.15
2023-05-17T12:50:36.203Z,98889.84
2023-05-17T12:53:56.969Z,98896.16
2023-05-17T12:57:22.321Z,98903.78
2023-05-17T13:00:43.535Z,98904.03
2023-05-17T13:04:02.061Z,98913.02
2023-05-17T13:07:20.734Z,98923.64
2023-05-17T13:10:43.318Z,98915.86
2023-05-17T13:14:04.290Z,98921.27
2023-05-17T13:17:25.157Z,98926.97
2023-05-17T13:20:41.787Z,98932.38
2023-05-17T13:23:59.424Z,98930.92
2023-05-17T13:27:17.529Z,98950.06
2023-05-17T13:30:39.992Z,98951.25
2023-05-17T13:33:57.321Z,98958.30
2023-05-17T13:37:15.444Z,98959.87
2023-05-17T13:40:32.064Z,98968.11
2023-05-17T13:43:48.482Z,98972.59
2023-05-17T13:47:05.240Z,98985.58
2023-05-17T13:50:24.985Z,98985.20
2023-05-17T13:56:47.689Z,99001.66
2023-05-17T14:00:06.678Z,99000.38
2023-05-17T14:03:23.448Z,99011.91
2023-05-17T14:06:40.340Z,99009.30
2023-05-17T14:09:57.446Z,99022.58
2023-05-17T14:13:14.144Z,99020.29
2023-05-17T14:16:36.284Z,99019.27
2023-05-17T14:19:58.210Z,99028.54
2023-05-17T14:23:19.545Z,99022.39
2023-05-17T14:26:39.816Z,99032.66
2023-05-17T14:29:57.084Z,99029.82
2023-05-17T14:33:15.417Z,99050.88
2023-05-17T14:36:35.287Z,99053.89
2023-05-17T14:40:05.335Z,99052.66
2023-05-17T14:43:08.800Z,99045.88
2023-05-17T14:46:25.392Z,99052.84
2023-05-17T14:49:43.871Z,99057.82
2023-05-17T14:53:01.639Z,99058.00
2023-05-17T14:56:23.438Z,99051.89
2023-05-17T14:59:43.803Z,99043.63
2023-05-17T15:03:01.099Z,99055.42
2023-05-17T15:06:18.234Z,99058.30
2023-05-17T15:09:36.125Z,99059.30
2023-05-17T15:12:53.264Z,99057.67
2023-05-17T15:16:10.407Z,99069.16
2023-05-17T15:19:30.381Z,99088.70
2023-05-17T15:22:48.280Z,99084.03
2023-05-17T15:26:05.486Z,99088.98
2023-05-17T15:29:24.189Z,99099.25
2023-05-17T15:32:43.490Z,99105.55
2023-05-17T15:36:03.882Z,99100.88
2023-05-17T15:39:20.467Z,99101.73
2023-05-17T15:42:37.524Z,99113.81
2023-05-17T15:45:54.580Z,99115.80
2023-05-17T15:49:11.302Z,99116.34
2023-05-17T15:52:28.266Z,99118.16
2023-05-17T15:55:45.171Z,99118.16
2023-05-17T15:59:02.896Z,99117.64
2023-05-17T16:02:22.879Z,99117.64
2023-05-17T16:05:40.125Z,99124.12
2023-05-17T16:08:57.113Z,99123.81
2023-05-17T16:12:14.842Z,99122.36
2023-05-17T16:15:42.588Z,99128.01
2023-05-17T16:18:59.932Z,99129.00
2023-05-17T16:22:17.391Z,99132.95
2023-05-17T16:25:35.382Z,99140.09
2023-05-17T16:28:54.153Z,99138.80
2023-05-17T16:32:11.732Z,99141.95
2023-05-17T16:35:28.593Z,99142.94
2023-05-17T16:38:46.029Z,99148.41
2023-05-17T16:42:02.750Z,99158.22
2023-05-17T16:45:23.863Z,99156.88
2023-05-17T16:48:42.763Z,99159.38
2023-05-17T16:52:02.531Z,99168.50
2023-05-17T16:55:22.317Z,99168.36
2023-05-17T16:58:41.461Z,99175.95
2023-05-17T17:02:10.839Z,99169.66
2023-05-17T17:05:29.021Z,99160.55
2023-05-17T17:08:47.649Z,99167.52
2023-05-17T17:12:23.977Z,99169.98
2023-05-17T17:15:42.819Z,99174.97
2023-05-17T17:18:59.567Z,99180.27
2023-05-17T17:22:22.646Z,99172.31
2023-05-17T17:25:42.016Z,99178.11
2023-05-17T17:28:59.766Z,99191.53
2023-05-17T17:32:18.476Z,99183.58
2023-05-17T17:35:35.382Z,99191.70
2023-05-17T17:38:52.063Z,99194.18
2023-05-17T17:42:11.117Z,99199.48
2023-05-17T17:45:28.025Z,99205.77
2023-05-17T17:48:47.307Z,99201.78
2023-05-17T17:52:06.234Z,99202.63
2023-05-17T17:55:22.906Z,99212.88
2023-05-17T17:58:39.454Z,99205.95
2023-05-17T18:01:55.930Z,99210.23
2023-05-17T18:05:13.749Z,99203.94
2023-05-17T18:08:30.236Z,99199.63
2023-05-17T18:11:47.016Z,99204.44
2023-05-17T18:15:04.039Z,99214.86
2023-05-17T18:18:22.020Z,99224.97
2023-05-17T18:21:39.166Z,99220.33
2023-05-17T18:24:56.387Z,99231.42
2023-05-17T18:28:14.074Z,99224.64
2023-05-17T18:31:32.965Z,99226.97
2023-05-17T18:35:04.346Z,99246.50
2023-05-17T18:38:27.787Z,99242.37
2023-05-17T18:41:44.757Z,99249.83
2023-05-17T18:45:01.922Z,99250.97
2023-05-17T18:48:18.700Z,99256.09
2023-05-17T18:51:37.208Z,99264.56
2023-05-17T18:54:53.681Z,99265.38
2023-05-17T18:58:10.566Z,99272.34
2023-05-17T19:01:27.086Z,99275.66
2023-05-17T19:04:43.753Z,99278.14
2023-05-17T19:08:00.352Z,99282.09
2023-05-17T19:11:16.991Z,99288.41
2023-05-17T19:14:34.701Z,99287.73
2023-05-17T19:17:53.129Z,99280.80
2023-05-17T19:21:17.505Z,99275.97
2023-05-17T19:24:36.609Z,99278.48
2023-05-17T19:27:53.072Z,99275.16
2023-05-17T19:31:12.856Z,99271.83
2023-05-17T19:34:30.804Z,99287.91
2023-05-17T19:37:49.622Z,99289.89
2023-05-17T19:41:06.086Z,99286.42
2023-05-17T19:44:22.985Z,99288.23
2023-05-17T19:47:39.639Z,99300.66
2023-05-17T19:50:57.121Z,99296.50
2023-05-17T19:54:14.457Z,99308.11
2023-05-17T19:57:32.564Z,99309.44
2023-05-17T20:00:49.654Z,99310.93
2023-05-17T20:04:06.560Z,99317.89
2023-05-17T20:07:24.961Z,99310.75
2023-05-17T20:10:41.565Z,99306.13
2023-05-17T20:13:58.242Z,99310.27
2023-05-17T20:17:15.198Z,99327.97
2023-05-17T20:20:32.219Z,99328.80
2023-05-17T20:23:55.155Z,99324.31
2023-05-17T20:27:12.316Z,99332.77
2023-05-17T20:30:29.174Z,99334.77
2023-05-17T20:33:45.812Z,99326.83
2023-05-17T20:37:02.819Z,99335.78
2023-05-17T20:40:21.360Z,99331.27
2023-05-17T20:43:38.258Z,99334.60
2023-05-17T20:47:00.471Z,99332.11
2023-05-17T20:50:20.880Z,99337.75
2023-05-17T20:53:39.298Z,99337.75
2023-05-17T20:57:07.462Z,99338.74
2023-05-17T21:00:25.630Z,99336.27
2023-05-17T21:03:42.505Z,99340.89
2023-05-17T21:07:02.374Z,99338.23
2023-05-17T21:10:19.614Z,99340.41
2023-05-17T21:13:40.051Z,99331.61
2023-05-17T21:16:58.116Z,99341.89
2023-05-17T21:20:17.198Z,99341.72
2023-05-17T21:23:36.863Z,99338.59
2023-05-17T21:26:56.802Z,99333.45
2023-05-17T21:30:22.436Z,99328.49
2023-05-17T21:33:41.918Z,99344.39
2023-05-17T21:37:01.942Z,99339.58
2023-05-17T21:40:20.070Z,99341.06
2023-05-17T21:43:37.485Z,99343.89
2023-05-17T21:46:54.476Z,99350.85
2023-05-17T21:50:12.740Z,99355.65
2023-05-17T21:53:29.070Z,99348.01
2023-05-17T21:56:45.444Z,99360.92
2023-05-17T22:00:04.600Z,99355.45
2023-05-17T22:03:23.075Z,99351.31
2023-05-17T22:06:39.712Z,99353.14
2023-05-17T22:09:56.122Z,99354.81
2023-05-17T22:13:13.227Z,99353.97
2023-05-17T22:16:31.684Z,99352.16
2023-05-17T22:19:49.453Z,99357.14
2023-05-17T22:23:06.526Z,99352.52
2023-05-17T22:26:25.218Z,99352.00
2023-05-17T22:29:42.768Z,99358.97
2023-05-17T22:32:59.383Z,99365.42
2023-05-17T22:36:18.818Z,99355.81
2023-05-17T22:39:32.877Z,99356.80
2023-05-17T22:42:49.296Z,99354.15
2023-05-17T22:46:05.693Z,99359.31
2023-05-17T22:49:22.320Z,99357.64
2023-05-17T22:52:40.575Z,99349.70
2023-05-17T22:55:57.134Z,99355.98
2023-05-17T22:59:17.207Z,99353.81
2023-05-17T23:02:34.462Z,99355.82
2023-05-17T23:05:52.439Z,99351.82
2023-05-17T23:09:09.453Z,99354.16
2023-05-17T23:12:27.406Z,99353.50
2023-05-17T23:15:45.910Z,99354.49
2023-05-17T23:19:04.982Z,99350.66
2023-05-17T23:22:21.637Z,99349.84
2023-05-17T23:25:38.180Z,99349.84
2023-05-17T23:28:56.059Z,99355.82
2023-05-17T23:32:12.908Z,99351.17
2023-05-17T23:35:32.241Z,99354.47
2023-05-17T23:38:48.814Z,99345.17
2023-05-17T23:42:07.401Z,99350.81
2023-05-17T23:45:23.710Z,99348.02
2023-05-17T23:48:40.064Z,99353.14
2023-05-17T23:51:57.712Z,99349.51
2023-05-17T23:55:15.926Z,99351.68
2023-05-17T23:58:32.635Z,99348.66
